Carlsbad Caverns National Park, NM

4:10 PM MST on February 14, 2016 (GMT -0700)
KNMCARLS3 | | Change Station
CLOSE
Current Station
Personal Weather Station
Location: Carlsbad, NM
Elevation: 3158 ft
Nearby Weather Stations

Elev 3158 ft 32.43 °N, 104.25 °W | Updated 25 seconds ago

Clear
Clear
67.8 °F
Feels Like 67.8 °F
N
0.0
Wind Variable Wind from North
Gusts 2.0 mph

Today
High -- | Low -- °F
--% Chance of Precip.
Yesterday
High -- | Low -- °F
Precip. -- in
Pressure 29.82 in
Visibility -9999.0 miles
Clouds Clear
Dew Point 25 °F
Humidity 20%
Rainfall 0.00 in
Snow Depth Not available.
6:41 AM 5:41 PM
Waxing Crescent, 46% visible
METAR KCNM 142253Z AUTO VRB04KT CLR 19/M05 A2989 RMK AO2 SLP098 T01891050 PNO $
Pressure 29.82 in
Visibility -9999.0 miles
Clouds Clear
Dew Point 25 °F
Humidity 20%
Rainfall 0.00 in
Snow Depth Not available.
6:41 AM 5:41 PM
Waxing Crescent, 46% visible
METAR KCNM 142253Z AUTO VRB04KT CLR 19/M05 A2989 RMK AO2 SLP098 T01891050 PNO $

10-Day Weather Forecast

Almanac

Astronomy

Feb. 14, 2016 Rise Set
Actual Time
Civil Twilight
Nautical Twilight
Astronomical Twilight
Moon
Length of Visible Light
Length of Day
Tomorrow will be .
, % of the Moon is Illuminated

Today's Extremes

State Highs State Lows

Community

WunderPhotos

Upload Photos

1,892,909 photos uploaded!

WunderBlog® & News

Nearby

Air Quality

  Air Quality AQ Index Pollutant
Not available.

Snow Depth

Station Depth Elevation

Earthquake Activity

City Distance Mag. Time & Date
Minimum magnitude displayed is 2.5.

Coastal Water Temperatures

Place Temperature

Stations

Nearby Weather Stations

Station Location Temp. Windchill Dew Point Humidity Wind Precip. Elev Updated Type
                   

Watches & Warnings

There are currently no watches in effect.